createdAt,value
2023-01-18T00:01:03.559Z,44.40
2023-01-18T00:03:34.076Z,42.90
2023-01-18T00:06:03.817Z,49.37
2023-01-18T00:08:34.301Z,42.90
2023-01-18T00:11:10.348Z,42.10
2023-01-18T00:13:39.687Z,40.10
2023-01-18T00:16:11.032Z,45.00
2023-01-18T00:18:40.286Z,50.30
2023-01-18T00:21:11.237Z,40.67
2023-01-18T00:23:41.196Z,37.97
2023-01-18T00:26:13.149Z,44.10
2023-01-18T00:28:42.773Z,45.07
2023-01-18T00:31:12.773Z,43.37
2023-01-18T00:33:44.521Z,42.53
2023-01-18T00:36:14.590Z,43.23
2023-01-18T00:38:44.129Z,38.83
2023-01-18T00:41:14.942Z,33.67
2023-01-18T00:43:43.327Z,40.87
2023-01-18T00:46:16.240Z,39.30
2023-01-18T00:48:46.060Z,38.90
2023-01-18T00:51:16.289Z,41.63
2023-01-18T00:53:46.275Z,40.43
2023-01-18T00:56:18.667Z,43.07
2023-01-18T00:58:48.903Z,40.10
2023-01-18T01:01:18.570Z,39.93
2023-01-18T01:04:05.455Z,46.43
2023-01-18T01:06:46.373Z,42.47
2023-01-18T01:09:18.562Z,37.77
2023-01-18T01:12:07.353Z,36.83
2023-01-18T01:14:54.568Z,39.33
2023-01-18T01:17:41.022Z,38.67
2023-01-18T01:20:28.424Z,41.27
2023-01-18T01:23:14.972Z,37.77
2023-01-18T01:26:01.932Z,37.70
2023-01-18T01:28:32.372Z,48.63
2023-01-18T01:31:02.459Z,44.53
2023-01-18T01:33:32.478Z,41.37
2023-01-18T01:36:03.649Z,43.93
2023-01-18T01:38:32.861Z,47.27
2023-01-18T01:41:03.198Z,44.67
2023-01-18T01:43:45.639Z,38.00
2023-01-18T01:46:20.402Z,41.17
2023-01-18T01:48:50.231Z,46.87
2023-01-18T01:51:21.784Z,42.63
2023-01-18T01:53:51.489Z,42.30
2023-01-18T01:56:21.472Z,36.80
2023-01-18T01:58:55.283Z,39.23
2023-01-18T02:01:25.021Z,44.50
2023-01-18T02:03:55.412Z,49.47
2023-01-18T02:06:31.685Z,41.23
2023-01-18T02:09:02.406Z,50.27
2023-01-18T02:11:31.359Z,45.77
2023-01-18T02:14:05.371Z,47.73
2023-01-18T02:16:45.876Z,45.27
2023-01-18T02:19:46.547Z,39.60
2023-01-18T02:22:34.120Z,41.13
2023-01-18T02:25:20.149Z,45.60
2023-01-18T02:27:57.251Z,45.57
2023-01-18T02:30:33.597Z,47.00
2023-01-18T02:33:07.992Z,44.47
2023-01-18T02:35:46.763Z,50.27
2023-01-18T02:38:21.474Z,46.80
2023-01-18T02:41:08.476Z,49.03
2023-01-18T02:43:55.291Z,44.23
2023-01-18T02:46:34.215Z,42.70
2023-01-18T02:49:06.781Z,41.70
2023-01-18T02:51:36.583Z,48.67
2023-01-18T02:54:10.186Z,50.60
2023-01-18T02:56:44.067Z,45.27
2023-01-18T02:59:17.421Z,47.57
2023-01-18T03:01:51.782Z,56.07
2023-01-18T03:04:25.990Z,52.10
2023-01-18T03:07:00.433Z,42.70
2023-01-18T03:09:30.114Z,43.60
2023-01-18T03:12:04.648Z,53.50
2023-01-18T03:14:43.609Z,52.43
2023-01-18T03:17:22.839Z,51.93
2023-01-18T03:20:08.966Z,55.50
2023-01-18T03:22:58.105Z,49.73
2023-01-18T03:25:32.396Z,62.47
2023-01-18T03:28:24.435Z,43.20
2023-01-18T03:31:13.095Z,50.43
2023-01-18T03:33:49.028Z,48.60
2023-01-18T03:36:20.022Z,44.30
2023-01-18T03:38:53.866Z,53.53
2023-01-18T03:41:26.444Z,48.47
2023-01-18T03:44:00.180Z,45.93
2023-01-18T03:46:33.027Z,48.40
2023-01-18T03:49:04.400Z,37.53
2023-01-18T03:51:47.510Z,46.87
2023-01-18T03:54:25.458Z,41.80
2023-01-18T03:56:59.144Z,47.23
2023-01-18T03:59:35.820Z,41.83
2023-01-18T04:02:05.569Z,47.20
2023-01-18T04:04:36.470Z,44.70
2023-01-18T04:07:06.012Z,45.10
2023-01-18T04:09:35.036Z,46.30
2023-01-18T04:12:04.271Z,45.47
2023-01-18T04:14:33.550Z,49.20
2023-01-18T04:17:02.752Z,47.67
2023-01-18T04:19:32.027Z,48.23
2023-01-18T04:22:03.363Z,43.60
2023-01-18T04:24:32.677Z,49.23
2023-01-18T04:27:01.798Z,44.67
2023-01-18T04:29:31.422Z,46.93
2023-01-18T04:32:00.680Z,47.47
2023-01-18T04:34:29.713Z,44.43
2023-01-18T04:36:58.795Z,44.10
2023-01-18T04:39:29.463Z,54.40
2023-01-18T04:41:59.143Z,46.07
2023-01-18T04:44:28.360Z,49.30
2023-01-18T04:46:57.716Z,47.00
2023-01-18T04:49:28.414Z,41.83
2023-01-18T04:51:57.861Z,49.60
2023-01-18T04:54:31.116Z,42.60
2023-01-18T04:57:00.330Z,44.50
2023-01-18T04:59:30.023Z,39.27
2023-01-18T05:01:59.317Z,46.70
2023-01-18T05:04:28.494Z,40.00
2023-01-18T05:06:57.664Z,48.63
2023-01-18T05:09:26.840Z,53.33
2023-01-18T05:11:57.461Z,45.27
2023-01-18T05:14:26.425Z,41.33
2023-01-18T05:16:55.389Z,49.23
2023-01-18T05:19:24.735Z,54.20
2023-01-18T05:21:53.884Z,47.33
2023-01-18T05:24:22.845Z,42.90
2023-01-18T05:26:51.967Z,48.40
2023-01-18T05:29:23.123Z,43.80
2023-01-18T05:31:52.555Z,45.73
2023-01-18T05:34:22.148Z,50.20
2023-01-18T05:36:51.310Z,48.70
2023-01-18T05:39:20.408Z,46.73
2023-01-18T05:41:49.520Z,48.67
2023-01-18T05:44:18.559Z,48.13
2023-01-18T05:46:50.179Z,47.73
2023-01-18T05:49:19.648Z,49.80
2023-01-18T05:51:48.774Z,54.10
2023-01-18T05:54:17.716Z,51.13
2023-01-18T05:56:46.598Z,49.20
2023-01-18T05:59:15.998Z,49.73
2023-01-18T06:01:45.786Z,49.50
2023-01-18T06:04:17.036Z,48.97
2023-01-18T06:06:46.737Z,44.50
2023-01-18T06:09:16.398Z,43.33
2023-01-18T06:11:45.680Z,49.80
2023-01-18T06:14:15.174Z,42.43
2023-01-18T06:16:44.422Z,43.83
2023-01-18T06:19:13.520Z,49.57
2023-01-18T06:21:44.029Z,52.63
2023-01-18T06:24:13.717Z,46.50
2023-01-18T06:26:43.108Z,41.77
2023-01-18T06:29:12.115Z,45.10
2023-01-18T06:31:41.772Z,41.43
2023-01-18T06:34:10.827Z,40.33
2023-01-18T06:36:41.053Z,41.77
2023-01-18T06:39:12.156Z,49.33
2023-01-18T06:41:41.521Z,45.67
2023-01-18T06:44:11.081Z,37.53
2023-01-18T06:46:40.148Z,44.60
2023-01-18T06:49:09.611Z,39.70
2023-01-18T06:51:39.200Z,40.97
2023-01-18T06:54:08.897Z,41.60
2023-01-18T06:56:40.236Z,45.23
2023-01-18T06:59:09.185Z,39.77
2023-01-18T07:01:38.111Z,40.67
2023-01-18T07:04:07.582Z,42.30
2023-01-18T07:06:38.094Z,41.90
2023-01-18T07:09:10.895Z,40.13
2023-01-18T07:11:43.476Z,44.33
2023-01-18T07:14:12.755Z,38.93
2023-01-18T07:16:42.232Z,45.10
2023-01-18T07:19:11.824Z,39.53
2023-01-18T07:21:41.006Z,34.47
2023-01-18T07:24:10.424Z,34.77
2023-01-18T07:26:39.931Z,44.07
2023-01-18T07:29:10.512Z,33.47
2023-01-18T07:31:40.883Z,35.30
2023-01-18T07:34:11.360Z,40.30
2023-01-18T07:36:42.205Z,35.83
2023-01-18T07:39:11.482Z,34.90
2023-01-18T07:41:40.616Z,44.20
2023-01-18T07:44:12.279Z,39.77
2023-01-18T07:46:42.884Z,41.20
2023-01-18T07:49:12.318Z,41.67
2023-01-18T07:51:41.690Z,40.57
2023-01-18T07:54:10.754Z,38.63
2023-01-18T07:56:40.491Z,37.50
2023-01-18T07:59:10.157Z,34.33
2023-01-18T08:01:41.206Z,41.93
2023-01-18T08:04:10.724Z,38.27
2023-01-18T08:06:40.032Z,41.57
2023-01-18T08:09:09.198Z,40.23
2023-01-18T08:11:38.343Z,45.10
2023-01-18T08:14:07.513Z,41.17
2023-01-18T08:16:36.446Z,37.40
2023-01-18T08:19:06.714Z,32.50
2023-01-18T08:21:35.968Z,42.33
2023-01-18T08:24:05.488Z,43.17
2023-01-18T08:26:35.026Z,38.03
2023-01-18T08:29:04.218Z,41.97
2023-01-18T08:31:33.548Z,41.30
2023-01-18T08:34:03.329Z,47.43
2023-01-18T08:36:34.398Z,45.63
2023-01-18T08:39:04.071Z,48.43
2023-01-18T08:41:33.947Z,43.87
2023-01-18T08:44:03.357Z,49.77
2023-01-18T08:46:33.260Z,48.27
2023-01-18T08:49:06.047Z,42.37
2023-01-18T08:51:37.478Z,43.73
2023-01-18T08:54:07.824Z,49.27
2023-01-18T08:56:37.308Z,50.97
2023-01-18T08:59:10.320Z,37.93
2023-01-18T09:01:39.594Z,51.03
2023-01-18T09:04:09.377Z,37.43
2023-01-18T09:06:40.541Z,41.47
2023-01-18T09:09:11.828Z,41.57
2023-01-18T09:11:41.107Z,44.73
2023-01-18T09:14:10.988Z,48.27
2023-01-18T09:16:40.489Z,42.80
2023-01-18T09:19:10.474Z,53.40
2023-01-18T09:21:42.052Z,40.83
2023-01-18T09:24:11.519Z,48.03
2023-01-18T09:26:41.624Z,50.27
2023-01-18T09:29:12.138Z,52.33
2023-01-18T09:31:41.486Z,43.97
2023-01-18T09:34:19.228Z,43.70
2023-01-18T09:36:52.009Z,45.40
2023-01-18T09:39:21.890Z,49.03
2023-01-18T09:41:55.942Z,40.83
2023-01-18T09:44:30.323Z,43.37
2023-01-18T09:47:03.289Z,46.23
2023-01-18T09:49:38.885Z,44.23
2023-01-18T09:52:28.854Z,53.27
2023-01-18T09:55:04.431Z,36.67
2023-01-18T09:57:53.686Z,40.77
2023-01-18T10:00:25.862Z,43.37
2023-01-18T10:03:01.387Z,38.40
2023-01-18T10:05:34.770Z,42.73
2023-01-18T10:08:14.199Z,37.10
2023-01-18T10:10:52.097Z,41.07
2023-01-18T10:13:35.849Z,36.17
2023-01-18T10:16:05.411Z,38.47
2023-01-18T10:18:39.979Z,39.80
2023-01-18T10:21:09.971Z,40.03
2023-01-18T10:23:46.318Z,40.47
2023-01-18T10:26:22.270Z,35.83
2023-01-18T10:28:59.354Z,37.57
2023-01-18T10:31:40.051Z,36.70
2023-01-18T10:34:18.301Z,36.43
2023-01-18T10:36:50.808Z,49.07
2023-01-18T10:39:40.908Z,36.53
2023-01-18T10:42:19.714Z,40.90
2023-01-18T10:44:49.732Z,43.10
2023-01-18T10:47:19.821Z,37.80
2023-01-18T10:49:51.282Z,38.30
2023-01-18T10:52:24.435Z,38.33
2023-01-18T10:54:58.602Z,42.03
2023-01-18T10:57:33.762Z,31.87
2023-01-18T11:00:03.254Z,32.40
2023-01-18T11:02:37.565Z,37.37
2023-01-18T11:05:22.416Z,35.73
2023-01-18T11:08:12.499Z,28.73
2023-01-18T11:10:44.109Z,29.10
2023-01-18T11:13:35.483Z,30.30
2023-01-18T11:16:05.995Z,28.20
2023-01-18T11:18:35.331Z,30.13
2023-01-18T11:21:05.159Z,32.20
2023-01-18T11:23:36.618Z,33.33
2023-01-18T11:26:15.129Z,27.57
2023-01-18T11:28:50.076Z,35.63
2023-01-18T11:31:22.310Z,33.37
2023-01-18T11:33:54.149Z,36.03
2023-01-18T11:36:35.072Z,33.63
2023-01-18T11:39:20.039Z,31.77
2023-01-18T11:41:50.881Z,32.70
2023-01-18T11:44:23.049Z,30.30
2023-01-18T11:46:53.737Z,33.03
2023-01-18T11:49:41.119Z,28.87
2023-01-18T11:52:17.283Z,25.60
2023-01-18T11:54:50.481Z,24.23
2023-01-18T11:57:25.160Z,19.93
2023-01-18T11:59:54.608Z,22.80
2023-01-18T12:02:56.613Z,22.67
2023-01-18T12:05:35.963Z,23.10
2023-01-18T12:08:38.587Z,26.20
2023-01-18T12:11:21.033Z,21.57
2023-01-18T12:13:59.749Z,23.87
2023-01-18T12:16:47.227Z,24.77
2023-01-18T12:19:43.094Z,23.63
2023-01-18T12:22:48.019Z,29.13
2023-01-18T12:26:06.829Z,24.23
2023-01-18T12:28:54.886Z,24.50
2023-01-18T12:31:38.743Z,26.43
2023-01-18T12:34:12.737Z,25.97
2023-01-18T12:37:01.991Z,26.27
2023-01-18T12:39:54.275Z,25.43
2023-01-18T12:42:30.635Z,27.83
2023-01-18T12:45:12.195Z,30.13
2023-01-18T12:47:48.003Z,24.00
2023-01-18T12:50:25.459Z,31.07
2023-01-18T12:52:55.948Z,28.67
2023-01-18T12:55:26.986Z,24.63
2023-01-18T12:58:11.500Z,27.77
2023-01-18T13:00:47.367Z,26.87
2023-01-18T13:03:25.144Z,30.27
2023-01-18T13:05:58.114Z,26.17
2023-01-18T13:08:39.258Z,28.90
2023-01-18T13:11:12.345Z,29.17
2023-01-18T13:13:45.386Z,28.03
2023-01-18T13:16:29.163Z,33.37
2023-01-18T13:19:03.885Z,31.17
2023-01-18T13:21:53.348Z,32.47
2023-01-18T13:24:32.372Z,29.23
2023-01-18T13:27:10.451Z,30.87
2023-01-18T13:29:40.151Z,28.13
2023-01-18T13:32:23.625Z,31.80
2023-01-18T13:35:18.498Z,30.63
2023-01-18T13:37:49.796Z,26.57
2023-01-18T13:40:34.934Z,29.87
2023-01-18T13:43:04.974Z,30.60
2023-01-18T13:45:34.532Z,29.87
2023-01-18T13:48:07.820Z,32.17
2023-01-18T13:50:48.755Z,30.90
2023-01-18T13:53:31.360Z,29.67
2023-01-18T13:56:29.697Z,27.67
2023-01-18T13:59:03.059Z,35.20
2023-01-18T14:01:36.651Z,31.57
2023-01-18T14:04:25.872Z,36.60
2023-01-18T14:06:58.089Z,28.70
2023-01-18T14:09:35.463Z,33.53
2023-01-18T14:12:06.304Z,31.60
2023-01-18T14:14:38.113Z,34.10
2023-01-18T14:17:17.565Z,32.43
2023-01-18T14:20:15.733Z,34.00
2023-01-18T14:23:06.686Z,33.03
2023-01-18T14:26:00.883Z,37.47
2023-01-18T14:28:36.647Z,37.50
2023-01-18T14:31:07.579Z,56.10
2023-01-18T14:33:40.161Z,47.37
2023-01-18T14:36:10.167Z,34.97
2023-01-18T14:38:44.361Z,31.60
2023-01-18T14:41:18.980Z,35.53
2023-01-18T14:43:49.615Z,33.07
2023-01-18T14:46:24.275Z,31.83
2023-01-18T14:48:56.384Z,36.47
2023-01-18T14:51:27.246Z,38.23
2023-01-18T14:54:00.843Z,33.90
2023-01-18T14:56:32.432Z,38.00
2023-01-18T14:59:03.423Z,36.43
2023-01-18T15:01:33.555Z,36.23
2023-01-18T15:04:04.587Z,36.43
2023-01-18T15:06:40.026Z,40.97
2023-01-18T15:09:12.458Z,40.43
2023-01-18T15:11:43.632Z,34.50
2023-01-18T15:14:18.332Z,37.97
2023-01-18T15:16:48.566Z,39.70
2023-01-18T15:19:20.522Z,46.20
2023-01-18T15:21:49.911Z,40.43
2023-01-18T15:24:23.069Z,37.77
2023-01-18T15:26:56.672Z,39.80
2023-01-18T15:29:28.594Z,38.63
2023-01-18T15:32:00.219Z,42.43
2023-01-18T15:34:33.348Z,38.47
2023-01-18T15:37:05.013Z,36.10
2023-01-18T15:39:35.816Z,39.00
2023-01-18T15:42:09.214Z,45.43
2023-01-18T15:44:45.156Z,40.97
2023-01-18T15:47:23.254Z,44.67
2023-01-18T15:49:54.230Z,41.03
2023-01-18T15:52:42.670Z,34.60
2023-01-18T15:55:25.027Z,42.00
2023-01-18T15:58:00.040Z,35.60
2023-01-18T16:00:33.719Z,40.10
2023-01-18T16:03:04.560Z,38.77
2023-01-18T16:05:33.990Z,43.77
2023-01-18T16:08:22.146Z,42.20
2023-01-18T16:10:57.103Z,43.97
2023-01-18T16:13:54.066Z,49.67
2023-01-18T16:16:32.489Z,60.47
2023-01-18T16:19:21.263Z,62.97
2023-01-18T16:22:06.040Z,66.27
2023-01-18T16:24:38.127Z,59.60
2023-01-18T16:27:14.678Z,67.40
2023-01-18T16:29:48.737Z,59.37
2023-01-18T16:32:19.072Z,51.97
2023-01-18T16:34:48.488Z,61.97
2023-01-18T16:37:19.007Z,57.70
2023-01-18T16:40:00.396Z,70.00
2023-01-18T16:42:38.136Z,56.43
2023-01-18T16:45:08.987Z,50.77
2023-01-18T16:47:38.162Z,52.20
2023-01-18T16:50:14.845Z,52.97
2023-01-18T16:52:45.454Z,58.07
2023-01-18T16:55:15.572Z,60.17
2023-01-18T16:57:47.286Z,57.77
2023-01-18T17:00:29.807Z,60.90
2023-01-18T17:03:04.320Z,58.13
2023-01-18T17:05:34.043Z,57.70
2023-01-18T17:08:05.408Z,60.00
2023-01-18T17:10:39.569Z,64.40
2023-01-18T17:13:10.996Z,68.80
2023-01-18T17:15:41.856Z,63.80
2023-01-18T17:18:15.864Z,64.27
2023-01-18T17:20:44.943Z,95.83
2023-01-18T17:23:14.771Z,87.97
2023-01-18T17:25:43.933Z,124.63
2023-01-18T17:28:15.725Z,89.00
2023-01-18T17:30:47.437Z,89.20
2023-01-18T17:33:19.792Z,87.47
2023-01-18T17:35:49.856Z,79.23
2023-01-18T17:38:25.138Z,91.60
2023-01-18T17:40:56.280Z,81.50
2023-01-18T17:43:34.821Z,83.67
2023-01-18T17:46:08.313Z,105.47
2023-01-18T17:48:37.413Z,87.90
2023-01-18T17:51:07.648Z,75.00
2023-01-18T17:53:36.815Z,76.77
2023-01-18T17:56:08.281Z,77.00
2023-01-18T17:58:38.917Z,78.43
2023-01-18T18:01:11.988Z,81.27
2023-01-18T18:03:45.532Z,92.23
2023-01-18T18:06:26.204Z,86.37
2023-01-18T18:08:59.715Z,91.53
2023-01-18T18:11:30.031Z,79.03
2023-01-18T18:14:03.401Z,82.13
2023-01-18T18:16:38.479Z,75.10
2023-01-18T18:19:14.860Z,78.83
2023-01-18T18:21:44.066Z,72.90
2023-01-18T18:24:13.631Z,73.97
2023-01-18T18:26:42.726Z,80.97
2023-01-18T18:29:13.265Z,77.47
2023-01-18T18:31:44.393Z,70.97
2023-01-18T18:34:14.069Z,86.07
2023-01-18T18:36:43.288Z,81.80
2023-01-18T18:39:13.621Z,84.33
2023-01-18T18:41:44.912Z,86.13
2023-01-18T18:44:15.907Z,89.43
2023-01-18T18:46:46.164Z,82.67
2023-01-18T18:49:15.952Z,85.27
2023-01-18T18:51:45.132Z,80.47
2023-01-18T18:54:14.660Z,81.23
2023-01-18T18:56:44.405Z,80.93
2023-01-18T18:59:14.074Z,104.50
2023-01-18T19:01:44.849Z,115.80
2023-01-18T19:04:14.255Z,143.07
2023-01-18T19:06:43.885Z,143.70
2023-01-18T19:09:13.231Z,107.63
2023-01-18T19:11:50.718Z,126.93
2023-01-18T19:14:26.225Z,100.40
2023-01-18T19:16:57.248Z,132.63
2023-01-18T19:19:27.941Z,90.03
2023-01-18T19:21:58.009Z,97.33
2023-01-18T19:24:32.242Z,99.80
2023-01-18T19:27:01.886Z,103.10
2023-01-18T19:29:31.975Z,146.90
2023-01-18T19:32:03.025Z,101.63
2023-01-18T19:34:32.621Z,127.60
2023-01-18T19:37:02.081Z,98.00
2023-01-18T19:39:34.784Z,90.77
2023-01-18T19:42:04.691Z,113.50
2023-01-18T19:44:33.927Z,98.40
2023-01-18T19:47:04.832Z,104.00
2023-01-18T19:49:34.567Z,84.13
2023-01-18T19:52:03.928Z,91.63
2023-01-18T19:54:34.324Z,101.13
2023-01-18T19:57:03.460Z,97.83
2023-01-18T19:59:32.648Z,100.77
2023-01-18T20:02:02.101Z,100.50
2023-01-18T20:04:34.224Z,93.40
2023-01-18T20:07:04.322Z,94.20
2023-01-18T20:09:42.825Z,105.23
2023-01-18T20:12:14.334Z,105.27
2023-01-18T20:14:45.327Z,86.10
2023-01-18T20:17:15.964Z,84.03
2023-01-18T20:19:46.804Z,88.17
2023-01-18T20:22:16.186Z,74.27
2023-01-18T20:24:45.792Z,73.87
2023-01-18T20:27:16.561Z,72.87
2023-01-18T20:29:46.825Z,66.90
2023-01-18T20:32:17.800Z,63.70
2023-01-18T20:34:49.200Z,70.20
2023-01-18T20:37:18.710Z,64.67
2023-01-18T20:39:48.022Z,76.87
2023-01-18T20:42:17.694Z,72.83
2023-01-18T20:44:50.021Z,73.77
2023-01-18T20:47:20.425Z,78.13
2023-01-18T20:49:51.393Z,61.33
2023-01-18T20:52:24.664Z,78.60
2023-01-18T20:54:54.778Z,66.77
2023-01-18T20:57:24.674Z,77.03
2023-01-18T20:59:53.808Z,82.97
2023-01-18T21:02:23.391Z,76.00
2023-01-18T21:04:54.569Z,80.70
2023-01-18T21:07:23.962Z,76.80
2023-01-18T21:09:53.510Z,73.13
2023-01-18T21:12:23.107Z,73.93
2023-01-18T21:14:52.544Z,78.17
2023-01-18T21:17:22.700Z,65.53
2023-01-18T21:19:53.851Z,75.20
2023-01-18T21:22:23.802Z,73.83
2023-01-18T21:24:52.969Z,71.93
2023-01-18T21:27:27.048Z,61.70
2023-01-18T21:29:56.319Z,68.27
2023-01-18T21:32:25.425Z,77.23
2023-01-18T21:34:55.993Z,69.90
2023-01-18T21:37:25.176Z,75.40
2023-01-18T21:39:54.576Z,74.50
2023-01-18T21:42:40.961Z,73.63
2023-01-18T21:45:30.049Z,83.33
2023-01-18T21:48:03.073Z,78.33
2023-01-18T21:50:51.387Z,63.20
2023-01-18T21:53:38.422Z,67.50
2023-01-18T21:56:08.318Z,61.90
2023-01-18T21:59:03.744Z,67.90
2023-01-18T22:01:38.340Z,55.60
2023-01-18T22:04:26.593Z,57.13
2023-01-18T22:06:59.464Z,61.90
2023-01-18T22:09:30.377Z,60.33
2023-01-18T22:11:59.933Z,65.70
2023-01-18T22:14:30.007Z,59.73
2023-01-18T22:16:59.273Z,68.80
2023-01-18T22:19:28.361Z,68.07
2023-01-18T22:21:59.397Z,69.70
2023-01-18T22:24:28.944Z,72.57
2023-01-18T22:26:58.423Z,66.00
2023-01-18T22:29:27.572Z,90.57
2023-01-18T22:31:57.306Z,101.80
2023-01-18T22:34:26.463Z,88.63
2023-01-18T22:36:55.300Z,104.60
2023-01-18T22:39:25.555Z,99.17
2023-01-18T22:41:54.506Z,89.60
2023-01-18T22:44:23.747Z,79.70
2023-01-18T22:46:52.907Z,77.30
2023-01-18T22:49:22.024Z,83.50
2023-01-18T22:51:51.002Z,77.90
2023-01-18T22:54:23.158Z,93.13
2023-01-18T22:56:53.821Z,82.20
2023-01-18T22:59:23.068Z,93.13
2023-01-18T23:01:52.342Z,88.80
2023-01-18T23:04:21.445Z,79.63
2023-01-18T23:06:52.580Z,80.20
2023-01-18T23:09:21.602Z,80.57
2023-01-18T23:11:51.912Z,80.87
2023-01-18T23:14:39.725Z,77.90
2023-01-18T23:17:26.082Z,80.33
2023-01-18T23:19:55.501Z,78.87
2023-01-18T23:22:24.542Z,81.33
2023-01-18T23:24:53.858Z,80.17
2023-01-18T23:27:25.392Z,87.97
2023-01-18T23:29:58.943Z,76.93
2023-01-18T23:32:30.785Z,79.20
2023-01-18T23:34:59.976Z,81.47
2023-01-18T23:37:30.314Z,74.70
2023-01-18T23:40:16.656Z,70.70
2023-01-18T23:43:03.693Z,79.77
2023-01-18T23:45:51.472Z,65.63
2023-01-18T23:48:38.782Z,69.90
2023-01-18T23:51:27.720Z,81.30
2023-01-18T23:54:16.451Z,70.23
2023-01-18T23:56:47.363Z,71.83
2023-01-18T23:59:16.614Z,74.87
